Weather observations for the past three days for
King Airport, St. Thomas
Imperial (Metric)
Date Time (ast) Wind (mph) Vis. (mi.) Weather Sky Cond. Temperature (ºF) Relative Humidity Wind Chill (°F) Heat Index (°F) Pressure Precipitation (in)
Air Dwpt 6 hour altimeter (in) sea level (mb) 1 hr 3 hr 6 hr
Max. Min.
04 13:53 SE 13 G 24 10.00 Partly Cloudy SCT025 88 73.9 88 84 63% 97 29.97 1015.0
04 12:53 SE 16 10.00 Fair CLR 87.8 73.4 62% 96 29.99 0.0
04 11:53 SE 17 10.00 Fair CLR 87.8 73.4 62% 96 30.01 0.0
04 10:53 SE 15 G 25 10.00 Fair CLR 86 73.4 66% 93 30.01 0.0
04 08:53 SE 14 10.00 Partly Cloudy SCT020 84.2 73.4 70% 91 30.02 0.0
04 07:53 SE 14 10.00 Partly Cloudy SCT022 84.2 73.4 70% 91 30.02 0.0
04 06:53 E 9 10.00 A Few Clouds FEW030 82.4 73.4 74% 88 30.01 0.0
04 05:53 E 7 10.00 Fair CLR 80.6 71.6 74% 85 29.99 0.0
04 04:53 E 5 10.00 Fair CLR 80.6 71.6 74% 85 29.98 0.0
04 03:53 E 5 10.00 Partly Cloudy SCT055 80.6 71.6 74% 85 29.98 0.0
04 02:53 E 5 10.00 Fair CLR 80.6 71.6 74% 85 29.97 0.0
04 01:53 E 8 10.00 Fair CLR 80.1 71.1 82 80.1 74% 84 29.98 1015.4
04 00:53 E 10 10.00 Fair CLR 80.6 71.6 74% 85 30 0.0
03 23:53 E 10 10.00 Fair CLR 82.4 73.4 74% 88 30.02 0.0
03 22:53 E 7 10.00 Fair CLR 81 73 77% 86 30.03 1016.8
03 21:53 E 7 10.00 Fair CLR 82 72 72% 87 30.03 1016.9
03 20:53 E 8 10.00 A Few Clouds FEW027 82.4 71.6 70% 87 30.02 0.0
03 19:53 E 6 10.00 A Few Clouds FEW030 82 71.1 87.1 82 69% 86 30 1015.9
03 17:53 SE 12 10.00 A Few Clouds FEW027 84.2 71.6 66% 90 29.98 0.0
03 16:53 SE 13 10.00 A Few Clouds FEW030 84.9 72 65% 91 29.97 1014.8
03 15:53 SE 12 10.00 A Few Clouds FEW030 86 73.4 66% 93 29.98 0.0
03 14:53 SE 12 10.00 A Few Clouds FEW030 87.8 71.6 59% 94 29.99 0.0
03 13:53 SE 13 10.00 A Few Clouds FEW030 87.1 73 88 84 63% 95 30 1016.1
03 12:53 SE 15 10.00 A Few Clouds FEW030 87.8 71.6 59% 94 30.02 0.0
03 11:53 SE 12 G 21 10.00 Fair CLR 86 71.6 62% 92 30.04 0.0
03 10:53 SE 14 10.00 A Few Clouds FEW050 86 71.6 62% 92 30.05 0.0
03 09:53 SE 17 G 25 10.00 Partly Cloudy SCT026 84.2 73.4 70% 91 30.05 0.0
03 08:53 SE 13 G 21 10.00 Partly Cloudy SCT026 SCT033 84.2 71.6 66% 90 30.05 0.0
03 07:53 E 15 G 21 10.00 Fair CLR 84.2 71.6 66% 90 30.04 0.0
03 06:53 E 10 10.00 Fair CLR 81 73 77% 86 30.03 1016.8
03 05:53 E 8 10.00 Fair CLR 78.8 71.6 79% 82 30.01 0.0
03 04:53 E 5 10.00 Fair CLR 77 37 24% 77 30 1015.9
03 03:53 E 5 10.00 Fair CLR 78.8 37.4 23% 78 30 0.0
03 02:53 E 5 10.00 Fair CLR 78.8 37.4 23% 78 30.01 0.0
03 01:53 E 6 10.00 Fair CLR 78.8 39.2 24% 78 30.02 0.0
03 00:53 E 7 10.00 Fair CLR 80.6 39.2 23% 79 30.03 0.0
02 23:53 E 6 10.00 Fair CLR 80.1 39 23% 79 30.03 1017.1
02 22:53 E 6 10.00 Fair CLR 80.1 39 23% 79 30.04 1017.2
02 21:53 E 6 10.00 Fair CLR 80.6 39.2 23% 79 30.03 0.0
02 20:53 E 5 10.00 Fair CLR 80.6 39.2 23% 79 30.01 0.0
02 19:53 E 7 10.00 Fair CLR 80.6 39.2 23% 79 30 0.0
02 18:53 E 10 10.00 A Few Clouds FEW030 82.4 37.4 20% 80 29.98 0.0
02 17:53 SE 12 10.00 Fair CLR 84.2 39.2 20% 81 29.96 0.0
02 16:53 SE 14 G 23 10.00 A Few Clouds FEW030 84.2 39.2 20% 81 29.95 0.0
02 15:53 SE 15 10.00 Partly Cloudy SCT030 84.2 39.2 20% 81 29.95 0.0
02 14:53 SE 16 10.00 Partly Cloudy SCT030 84.2 39.2 20% 81 29.96 0.0
02 13:53 SE 16 10.00 Partly Cloudy SCT030 86 41 86 81 20% 83 29.98 1015.4
02 12:53 SE 15 G 23 10.00 Partly Cloudy SCT030 86 39.2 19% 83 30.01 0.0
02 11:53 SE 15 10.00 Partly Cloudy SCT030 SCT040 84.2 37.4 19% 81 30.02 0.0
02 10:53 E 14 G 24 10.00 Partly Cloudy SCT028 84.2 35.6 18% 81 30.03 0.0
02 09:53 SE 12 10.00 A Few Clouds FEW030 86 72 63% 92 30.03 1016.8
02 08:53 SE 15 10.00 Partly Cloudy FEW025 SCT032 84.2 71.6 66% 90 30.02 0.0
02 07:53 E 10 10.00 Fair CLR 84.2 71.6 66% 90 30 0.0
02 06:53 E 10 10.00 Fair CLR 81 72 74% 85 29.98 1015.2
02 05:53 E 7 10.00 Fair CLR 78.8 71.6 79% 82 29.96 0.0
02 04:53 E 5 10.00 Fair CLR 77 73 88% 78 29.95 1014.2
02 03:53 E 5 10.00 Fair CLR 78.8 71.6 79% 82 29.94 0.0
02 02:53 E 5 10.00 Fair CLR 78.8 71.6 79% 82 29.94 0.0
02 01:53 E 5 10.00 Fair CLR 78.8 71.6 79% 82 29.94 0.0
02 00:53 E 6 10.00 Fair CLR 79 72 79% 82 29.96 1014.6
01 23:53 E 6 10.00 Fair CLR 80.6 73.4 79% 85 29.98 0.0
01 21:53 E 7 10.00 Fair CLR 80.6 73.4 79% 85 29.97 0.0
01 20:53 E 5 10.00 Fair CLR 80.6 73.4 79% 85 29.95 0.0
01 19:53 E 6 10.00 Fair CLR 80.6 71.6 74% 85 29.94 0.0
01 18:53 E 9 10.00 Fair CLR 82.4 71.6 70% 87 29.93 0.0
01 16:53 SE 14 10.00 Partly Cloudy SCT030 84.2 73.4 70% 91 29.91 0.0
01 15:53 SE 14 10.00 Partly Cloudy SCT030 84.9 73.9 70% 92 29.91 1013.0
Date Time (ast) Wind (mph) Vis. (mi.) Weather Sky Cond. Air Dwpt Max. Min. Relative Humidity Wind Chill (°F) Heat Index (°F) altimeter (in) sea level (mb) 1 hr 3 hr 6 hr
6 hour
Temperature (ºF) Pressure Precipitation (in)